My Meet Scores
Norah Kwilosz, Dreams Gymnastics Club Inc. - MyMeetScores.com
Top100 | Top Teams | Upcoming Meets | Completed Meets | Latest | Add Scores | Help| Support | Bookmark and Share

Norah Kwilosz, Dreams Gymnastics Club Inc.
Personal Bests
LevelVault BarsBeamFloorAA
39.6009.600 9.4259.37537.350
49.1259.725 9.4259.37537.250
59.4259.425 9.3009.50037.100
Meet Scores
Date Meet Team Session Level Division Vault Bars Beam Floor AA
2021-03-18 Level 5 & Xcel Gold State Dreams Gymnastics Club Inc. 2 5 Sr A 9.150 18 9.250 13 9.300 8 9.250 10T 36.950 10T
2021-03-12 LUCKY INVITATIONAL Dreams Gymnastics Club Inc. A01 5 Jr B 8.800 10T 9.075 6T 8.775 11 9.350 3T 36.000 8
2021-02-27 2021 Energym Spring Classic Dreams Gymnastics Club Inc. 4 5 JrB 8.650 8 9.150 3 8.650 8 9.175 4T 35.625 5
2021-02-19 BIG Classic 2021 Dreams Gymnastics Club Inc. 3B 5 Child C 9.050 3 9.350 3 9.075 5 9.250 3 36.725 3
2021-02-05 Honey Badger Invite 2021 Dreams Gymnastics Club Inc. 4 5 Jr 8.650 6 9.075 1 8.700 6 9.250 1 35.675 3
2021-01-14 2021 Bravo Classic Dreams Gymnastics Club Inc. 17 5 Jr 9.050 5 9.400 5 8.650 13 9.200 6T 36.300 8
2020-02-14 Midwest Open Dreams Gymnastics Club Inc. 05A 5 Junior A 9.150 3T 9.425 4T 9.025 7 9.500 2 37.100 3
2020-01-31 Buckeye Classic Dreams Gymnastics Club Inc. SC1 5 B 9.000 9 6.850 12 8.667 9 9.075 4 33.592 10
2020-01-17 2020 Bravo Classic Dreams Gymnastics Club Inc. 4A 5 Child 9.425 10 8.950 12T 8.450 17T 9.375 4T 36.200 14
2020-01-10 St Jude Benefit Meet Dreams Gymnastics Club Inc. 1A 5 Jr B 9.075 5 9.350 2T 9.250 1 9.050 1 36.725 1
2019-12-13 2019 St Nick Dreams Gymnastics Club Inc. 7A 5 JrA 9.025 10 9.325 1 8.800 9T 9.275 8 36.425 5
2019-12-07 Home for the Holidays 2019 Dreams Gymnastics Club Inc. 5 5 Younger 8.900 7 9.150 4 9.100 5 9.450 5 36.600 4
2019-03-22 Illinois Gymnastics State Championships Dreams Gymnastics Club Inc. 8 4 Ch F 8.850 10 9.600 3 9.425 10T 9.375 6 37.250 7
2019-03-08 Lucky Invite Dreams Gymnastics Club Inc. A07 4 Jr A 8.850 2 9.425 1 9.200 2 9.350 1 36.825 1
2019-02-23 Kinetic Classic 2019 Dreams Gymnastics Club Inc. 1 4 Younger 8.625 22 9.650 3 8.750 28 9.050 18T 36.075 11
2019-02-08 IGI Chicago Style 2019 Dreams Gymnastics Club Inc. 38 4 231 Lakeshore L4 B 9.050 4 9.500 2 9.225 7 8.850 7 36.625 4
2019-01-18 2019 Bravo Classic Dreams Gymnastics Club Inc. 3B 4 Child 9.125 12 9.450 4 8.700 14T 9.050 11 36.325 8
2019-01-11 St Jude Benefit Meet Dreams Gymnastics Club Inc. 6A 4 Jr A 9.100 5 9.225 1T 8.850 7 9.300 2 36.475 2
2018-12-07 St. Nick Invite 2018 Dreams Gymnastics Club Inc. 6A 4 JrA 8.800 6 9.725 1 8.700 6 9.200 1T 36.425 1
2018-05-03 Illinois USA Gymnastics Level 3 State Championships Dreams Gymnastics Club Inc. 4 3 Youth A 9.600 8T 9.600 4T 8.575 20 9.350 8T 37.125 11
2018-03-09 Lucky Invitational Dreams Gymnastics Club Inc. B01 3 Jr A 9.350 4T 9.450 1T 9.225 1T 9.000 8T 37.025 1
2018-02-09 IGI Chicago Style Gymnastics Meet Dreams Gymnastics Club Inc. 42 3 631 LaSalle L3 B 9.275 6 9.275 4 9.425 4 9.375 7 37.350 5
2018-01-12 St Jude Benefit Meet Dreams Gymnastics Club Inc. 5A 3 JrC 9.425 5 9.200 6 9.300 3 8.900 5 36.825 3
2017-12-08 St. Nick Invite Dreams Gymnastics Club Inc. 5A 3 JrA 8.975 7 9.400 1 9.050 1 9.200 2 36.625 1
Get your scores on
a t-shirt, pin, or hoodie